sensor_id;sensor_type;location;lat;lon;timestamp;pressure;altitude;pressure_sealevel;temperature
41654;BMP280;30790;52.030;7.110;2023-03-07T00:00:57;98962.97;;;20.65
41654;BMP280;30790;52.030;7.110;2023-03-07T00:03:22;98949.91;;;20.62
41654;BMP280;30790;52.030;7.110;2023-03-07T00:05:47;98944.97;;;20.64
41654;BMP280;30790;52.030;7.110;2023-03-07T00:08:13;98957.56;;;20.60
41654;BMP280;30790;52.030;7.110;2023-03-07T00:10:38;98952.94;;;20.60
41654;BMP280;30790;52.030;7.110;2023-03-07T00:13:03;98960.06;;;20.56
41654;BMP280;30790;52.030;7.110;2023-03-07T00:15:29;98955.72;;;20.55
41654;BMP280;30790;52.030;7.110;2023-03-07T00:17:55;98955.72;;;20.55
41654;BMP280;30790;52.030;7.110;2023-03-07T00:20:20;98958.72;;;20.54
41654;BMP280;30790;52.030;7.110;2023-03-07T00:22:46;98937.25;;;20.47
41654;BMP280;30790;52.030;7.110;2023-03-07T00:25:12;98950.53;;;20.54
41654;BMP280;30790;52.030;7.110;2023-03-07T00:27:37;98969.59;;;20.54
41654;BMP280;30790;52.030;7.110;2023-03-07T00:30:04;98962.81;;;20.51
41654;BMP280;30790;52.030;7.110;2023-03-07T00:32:30;98961.50;;;20.49
41654;BMP280;30790;52.030;7.110;2023-03-07T00:34:56;98965.59;;;20.46
41654;BMP280;30790;52.030;7.110;2023-03-07T00:37:22;98976.22;;;20.48
41654;BMP280;30790;52.030;7.110;2023-03-07T00:39:48;98962.88;;;20.46
41654;BMP280;30790;52.030;7.110;2023-03-07T00:42:13;98953.38;;;20.44
41654;BMP280;30790;52.030;7.110;2023-03-07T00:44:38;98958.81;;;20.44
41654;BMP280;30790;52.030;7.110;2023-03-07T00:47:04;98946.00;;;20.44
41654;BMP280;30790;52.030;7.110;2023-03-07T00:49:29;98941.13;;;20.41
41654;BMP280;30790;52.030;7.110;2023-03-07T00:51:54;98952.56;;;20.43
41654;BMP280;30790;52.030;7.110;2023-03-07T00:54:20;98946.59;;;20.41
41654;BMP280;30790;52.030;7.110;2023-03-07T00:56:45;98940.06;;;20.37
41654;BMP280;30790;52.030;7.110;2023-03-07T00:59:10;98934.91;;;20.35
41654;BMP280;30790;52.030;7.110;2023-03-07T01:01:36;98938.41;;;20.41
41654;BMP280;30790;52.030;7.110;2023-03-07T01:04:02;98936.25;;;20.38
41654;BMP280;30790;52.030;7.110;2023-03-07T01:06:29;98938.16;;;20.37
41654;BMP280;30790;52.030;7.110;2023-03-07T01:09:01;98940.06;;;20.37
41654;BMP280;30790;52.030;7.110;2023-03-07T01:11:28;98934.91;;;20.35
41654;BMP280;30790;52.030;7.110;2023-03-07T01:13:55;98923.19;;;20.35
41654;BMP280;30790;52.030;7.110;2023-03-07T01:16:26;98928.94;;;20.33
41654;BMP280;30790;52.030;7.110;2023-03-07T01:19:00;98926.22;;;20.33
41654;BMP280;30790;52.030;7.110;2023-03-07T01:21:28;98923.78;;;20.32
41654;BMP280;30790;52.030;7.110;2023-03-07T01:23:54;98916.13;;;20.34
41654;BMP280;30790;52.030;7.110;2023-03-07T01:26:22;98916.13;;;20.34
41654;BMP280;30790;52.030;7.110;2023-03-07T01:28:50;98904.69;;;20.32
41654;BMP280;30790;52.030;7.110;2023-03-07T01:31:16;98909.03;;;20.33
41654;BMP280;30790;52.030;7.110;2023-03-07T01:33:41;98915.88;;;20.30
41654;BMP280;30790;52.030;7.110;2023-03-07T01:36:16;98903.66;;;20.28
41654;BMP280;30790;52.030;7.110;2023-03-07T01:38:42;98890.59;;;20.25
41654;BMP280;30790;52.030;7.110;2023-03-07T01:41:08;98891.66;;;20.29
41654;BMP280;30790;52.030;7.110;2023-03-07T01:43:34;98890.06;;;20.23
41654;BMP280;30790;52.030;7.110;2023-03-07T01:49:17;98896.56;;;20.27
41654;BMP280;30790;52.030;7.110;2023-03-07T01:51:47;98888.44;;;20.22
41654;BMP280;30790;52.030;7.110;2023-03-07T01:54:15;98886.00;;;20.20
41654;BMP280;30790;52.030;7.110;2023-03-07T01:56:42;98879.16;;;20.23
41654;BMP280;30790;52.030;7.110;2023-03-07T01:59:08;98878.06;;;20.24
41654;BMP280;30790;52.030;7.110;2023-03-07T02:01:34;98875.91;;;20.21
41654;BMP280;30790;52.030;7.110;2023-03-07T02:04:14;98877.03;;;20.20
41654;BMP280;30790;52.030;7.110;2023-03-07T02:06:41;98876.22;;;20.19
41654;BMP280;30790;52.030;7.110;2023-03-07T02:09:11;98875.41;;;20.19
41654;BMP280;30790;52.030;7.110;2023-03-07T02:11:41;98867.53;;;20.17
41654;BMP280;30790;52.030;7.110;2023-03-07T02:14:07;98867.22;;;20.19
41654;BMP280;30790;52.030;7.110;2023-03-07T02:16:32;98872.16;;;20.17
41654;BMP280;30790;52.030;7.110;2023-03-07T02:18:58;98862.38;;;20.16
41654;BMP280;30790;52.030;7.110;2023-03-07T02:21:38;98862.66;;;20.14
41654;BMP280;30790;52.030;7.110;2023-03-07T02:24:39;98862.66;;;20.14
41654;BMP280;30790;52.030;7.110;2023-03-07T02:27:04;98851.53;;;20.11
41654;BMP280;30790;52.030;7.110;2023-03-07T02:29:30;98860.22;;;20.13
41654;BMP280;30790;52.030;7.110;2023-03-07T02:31:55;98857.50;;;20.13
41654;BMP280;30790;52.030;7.110;2023-03-07T02:34:22;98853.72;;;20.09
41654;BMP280;30790;52.030;7.110;2023-03-07T02:36:51;98844.44;;;20.10
41654;BMP280;30790;52.030;7.110;2023-03-07T02:39:19;98847.69;;;20.12
41654;BMP280;30790;52.030;7.110;2023-03-07T02:41:47;98855.34;;;20.10
41654;BMP280;30790;52.030;7.110;2023-03-07T02:44:13;98842.84;;;20.09
41654;BMP280;30790;52.030;7.110;2023-03-07T02:46:39;98845.25;;;20.10
41654;BMP280;30790;52.030;7.110;2023-03-07T02:49:04;98831.13;;;20.08
41654;BMP280;30790;52.030;7.110;2023-03-07T02:51:30;98837.38;;;20.09
41654;BMP280;30790;52.030;7.110;2023-03-07T02:53:55;98836.34;;;20.04
41654;BMP280;30790;52.030;7.110;2023-03-07T02:56:21;98843.41;;;20.05
41654;BMP280;30790;52.030;7.110;2023-03-07T02:58:46;98832.22;;;20.07
41654;BMP280;30790;52.030;7.110;2023-03-07T03:01:12;98837.44;;;20.03
41654;BMP280;30790;52.030;7.110;2023-03-07T03:03:37;98837.44;;;20.03
41654;BMP280;30790;52.030;7.110;2023-03-07T03:06:02;98833.63;;;20.04
41654;BMP280;30790;52.030;7.110;2023-03-07T03:08:27;98838.53;;;20.02
41654;BMP280;30790;52.030;7.110;2023-03-07T03:10:53;98845.31;;;20.05
41654;BMP280;30790;52.030;7.110;2023-03-07T03:13:20;98854.88;;;20.02
41654;BMP280;30790;52.030;7.110;2023-03-07T03:15:45;98862.53;;;20.00
41654;BMP280;30790;52.030;7.110;2023-03-07T03:18:10;98871.22;;;20.02
41654;BMP280;30790;52.030;7.110;2023-03-07T03:20:40;98860.63;;;20.01
41654;BMP280;30790;52.030;7.110;2023-03-07T03:23:06;98860.88;;;19.99
41654;BMP280;30790;52.030;7.110;2023-03-07T03:25:31;98865.25;;;20.00
41654;BMP280;30790;52.030;7.110;2023-03-07T03:27:57;98857.09;;;20.00
41654;BMP280;30790;52.030;7.110;2023-03-07T03:30:22;98856.00;;;19.96
41654;BMP280;30790;52.030;7.110;2023-03-07T03:32:47;98856.81;;;19.97
41654;BMP280;30790;52.030;7.110;2023-03-07T03:35:12;98853.28;;;19.96
41654;BMP280;30790;52.030;7.110;2023-03-07T03:37:38;98858.22;;;19.94
41654;BMP280;30790;52.030;7.110;2023-03-07T03:40:04;98857.41;;;19.94
41654;BMP280;30790;52.030;7.110;2023-03-07T03:42:35;98856.06;;;19.91
41654;BMP280;30790;52.030;7.110;2023-03-07T03:45:01;98864.25;;;19.91
41654;BMP280;30790;52.030;7.110;2023-03-07T03:47:26;98855.56;;;19.89
41654;BMP280;30790;52.030;7.110;2023-03-07T03:49:51;98854.50;;;19.85
41654;BMP280;30790;52.030;7.110;2023-03-07T03:52:16;98862.63;;;19.90
41654;BMP280;30790;52.030;7.110;2023-03-07T03:54:42;98857.47;;;19.89
41654;BMP280;30790;52.030;7.110;2023-03-07T03:57:07;98856.94;;;19.87
41654;BMP280;30790;52.030;7.110;2023-03-07T03:59:32;98857.47;;;19.89
41654;BMP280;30790;52.030;7.110;2023-03-07T04:01:58;98849.88;;;19.86
41654;BMP280;30790;52.030;7.110;2023-03-07T04:04:23;98848.25;;;19.85
41654;BMP280;30790;52.030;7.110;2023-03-07T04:06:48;98855.03;;;19.87
41654;BMP280;30790;52.030;7.110;2023-03-07T04:09:14;98850.69;;;19.86
41654;BMP280;30790;52.030;7.110;2023-03-07T04:11:39;98852.59;;;19.86
41654;BMP280;30790;52.030;7.110;2023-03-07T04:14:04;98844.44;;;19.86
41654;BMP280;30790;52.030;7.110;2023-03-07T04:16:30;98834.56;;;19.90
41654;BMP280;30790;52.030;7.110;2023-03-07T04:18:56;98834.56;;;19.90
41654;BMP280;30790;52.030;7.110;2023-03-07T04:21:21;98825.59;;;19.89
41654;BMP280;30790;52.030;7.110;2023-03-07T04:23:47;98820.09;;;19.94
41654;BMP280;30790;52.030;7.110;2023-03-07T04:26:19;98820.59;;;20.01
41654;BMP280;30790;52.030;7.110;2023-03-07T04:28:45;98810.50;;;20.02
41654;BMP280;30790;52.030;7.110;2023-03-07T04:31:13;98822.38;;;20.11
41654;BMP280;30790;52.030;7.110;2023-03-07T04:33:39;98815.81;;;20.12
41654;BMP280;30790;52.030;7.110;2023-03-07T04:36:04;98812.00;;;20.13
41654;BMP280;30790;52.030;7.110;2023-03-07T04:38:30;98815.25;;;20.15
41654;BMP280;30790;52.030;7.110;2023-03-07T04:40:55;98820.63;;;20.20
41654;BMP280;30790;52.030;7.110;2023-03-07T04:43:20;98821.16;;;20.22
41654;BMP280;30790;52.030;7.110;2023-03-07T04:45:46;98815.09;;;20.25
41654;BMP280;30790;52.030;7.110;2023-03-07T04:48:11;98816.22;;;20.24
41654;BMP280;30790;52.030;7.110;2023-03-07T04:50:36;98815.91;;;20.26
41654;BMP280;30790;52.030;7.110;2023-03-07T04:53:02;98819.19;;;20.28
41654;BMP280;30790;52.030;7.110;2023-03-07T04:55:27;98823.47;;;20.34
41654;BMP280;30790;52.030;7.110;2023-03-07T04:57:52;98818.53;;;20.36
41654;BMP280;30790;52.030;7.110;2023-03-07T05:00:18;98819.06;;;20.38
41654;BMP280;30790;52.030;7.110;2023-03-07T05:02:44;98820.69;;;20.39
41654;BMP280;30790;52.030;7.110;2023-03-07T05:05:10;98816.59;;;20.42
41654;BMP280;30790;52.030;7.110;2023-03-07T05:07:36;98813.88;;;20.42
41654;BMP280;30790;52.030;7.110;2023-03-07T05:10:02;98812.47;;;20.44
41654;BMP280;30790;52.030;7.110;2023-03-07T05:12:27;98814.91;;;20.46
41654;BMP280;30790;52.030;7.110;2023-03-07T05:14:52;98808.63;;;20.45
41654;BMP280;30790;52.030;7.110;2023-03-07T05:17:18;98803.41;;;20.49
41654;BMP280;30790;52.030;7.110;2023-03-07T05:19:44;98805.53;;;20.52
41654;BMP280;30790;52.030;7.110;2023-03-07T05:22:09;98803.06;;;20.55
41654;BMP280;30790;52.030;7.110;2023-03-07T05:24:34;98800.88;;;20.57
41654;BMP280;30790;52.030;7.110;2023-03-07T05:27:00;98795.41;;;20.57
41654;BMP280;30790;52.030;7.110;2023-03-07T05:29:25;98792.91;;;20.61
41654;BMP280;30790;52.030;7.110;2023-03-07T05:31:50;98795.34;;;20.62
41654;BMP280;30790;52.030;7.110;2023-03-07T05:34:16;98791.22;;;20.65
41654;BMP280;30790;52.030;7.110;2023-03-07T05:36:41;98786.28;;;20.67
41654;BMP280;30790;52.030;7.110;2023-03-07T05:39:07;98785.16;;;20.68
41654;BMP280;30790;52.030;7.110;2023-03-07T05:41:32;98783.53;;;20.67
41654;BMP280;30790;52.030;7.110;2023-03-07T05:43:58;98783.75;;;20.71
41654;BMP280;30790;52.030;7.110;2023-03-07T05:46:23;98778.31;;;20.71
41654;BMP280;30790;52.030;7.110;2023-03-07T05:48:48;98777.28;;;20.66
41654;BMP280;30790;52.030;7.110;2023-03-07T05:51:14;98776.97;;;20.68
41654;BMP280;30790;52.030;7.110;2023-03-07T05:53:39;98775.38;;;20.67
41654;BMP280;30790;52.030;7.110;2023-03-07T05:56:04;98778.91;;;20.67
41654;BMP280;30790;52.030;7.110;2023-03-07T05:58:30;98770.44;;;20.69
41654;BMP280;30790;52.030;7.110;2023-03-07T06:00:55;98773.44;;;20.67
41654;BMP280;30790;52.030;7.110;2023-03-07T06:03:20;98771.25;;;20.70
41654;BMP280;30790;52.030;7.110;2023-03-07T06:05:49;98776.69;;;20.70
41654;BMP280;30790;52.030;7.110;2023-03-07T06:08:14;98777.50;;;20.70
41654;BMP280;30790;52.030;7.110;2023-03-07T06:10:39;98775.59;;;20.71
41654;BMP280;30790;52.030;7.110;2023-03-07T06:13:12;98781.03;;;20.71
41654;BMP280;30790;52.030;7.110;2023-03-07T06:15:39;98774.47;;;20.72
41654;BMP280;30790;52.030;7.110;2023-03-07T06:18:04;98773.38;;;20.73
41654;BMP280;30790;52.030;7.110;2023-03-07T06:20:30;98775.50;;;20.76
41654;BMP280;30790;52.030;7.110;2023-03-07T06:22:56;98778.75;;;20.78
41654;BMP280;30790;52.030;7.110;2023-03-07T06:25:21;98774.91;;;20.79
41654;BMP280;30790;52.030;7.110;2023-03-07T06:27:46;98789.34;;;20.79
41654;BMP280;30790;52.030;7.110;2023-03-07T06:30:12;98777.13;;;20.77
41654;BMP280;30790;52.030;7.110;2023-03-07T06:32:37;98776.31;;;20.76
41654;BMP280;30790;52.030;7.110;2023-03-07T06:35:03;98788.13;;;20.90
41654;BMP280;30790;52.030;7.110;2023-03-07T06:37:28;98800.78;;;21.00
41654;BMP280;30790;52.030;7.110;2023-03-07T06:39:54;98797.47;;;21.03
41654;BMP280;30790;52.030;7.110;2023-03-07T06:42:19;98792.31;;;21.02
41654;BMP280;30790;52.030;7.110;2023-03-07T06:44:45;98795.84;;;21.02
41654;BMP280;30790;52.030;7.110;2023-03-07T06:47:10;98804.84;;;21.03
41654;BMP280;30790;52.030;7.110;2023-03-07T06:49:35;98808.28;;;21.08
41654;BMP280;30790;52.030;7.110;2023-03-07T06:52:00;98811.63;;;21.24
41654;BMP280;30790;52.030;7.110;2023-03-07T06:54:26;98810.13;;;21.32
41654;BMP280;30790;52.030;7.110;2023-03-07T06:56:51;98819.94;;;21.33
41654;BMP280;30790;52.030;7.110;2023-03-07T06:59:16;98821.06;;;21.32
41654;BMP280;30790;52.030;7.110;2023-03-07T07:01:42;98824.53;;;21.37
41654;BMP280;30790;52.030;7.110;2023-03-07T07:04:09;98830.63;;;21.48
41654;BMP280;30790;52.030;7.110;2023-03-07T07:06:35;98833.25;;;21.53
41654;BMP280;30790;52.030;7.110;2023-03-07T07:09:00;98830.88;;;21.65
41654;BMP280;30790;52.030;7.110;2023-03-07T07:11:26;98837.38;;;21.69
41654;BMP280;30790;52.030;7.110;2023-03-07T07:13:51;98844.00;;;21.63
41654;BMP280;30790;52.030;7.110;2023-03-07T07:16:17;98832.91;;;21.73
41654;BMP280;30790;52.030;7.110;2023-03-07T07:18:43;98834.25;;;21.76
41654;BMP280;30790;52.030;7.110;2023-03-07T07:21:09;98829.19;;;21.83
41654;BMP280;30790;52.030;7.110;2023-03-07T07:23:34;98826.47;;;21.83
41654;BMP280;30790;52.030;7.110;2023-03-07T07:26:00;98827.97;;;21.89
41654;BMP280;30790;52.030;7.110;2023-03-07T07:28:25;98822.00;;;21.87
41654;BMP280;30790;52.030;7.110;2023-03-07T07:30:51;98821.69;;;21.88
41654;BMP280;30790;52.030;7.110;2023-03-07T07:33:16;98820.69;;;21.84
41654;BMP280;30790;52.030;7.110;2023-03-07T07:35:45;98826.06;;;21.89
41654;BMP280;30790;52.030;7.110;2023-03-07T07:38:11;98831.81;;;21.88
41654;BMP280;30790;52.030;7.110;2023-03-07T07:40:36;98832.13;;;21.86
41654;BMP280;30790;52.030;7.110;2023-03-07T07:43:01;98841.94;;;21.87
41654;BMP280;30790;52.030;7.110;2023-03-07T07:45:27;98841.44;;;21.85
41654;BMP280;30790;52.030;7.110;2023-03-07T07:47:52;98833.75;;;21.87
41654;BMP280;30790;52.030;7.110;2023-03-07T07:50:18;98847.09;;;21.89
41654;BMP280;30790;52.030;7.110;2023-03-07T07:52:44;98850.63;;;21.89
41654;BMP280;30790;52.030;7.110;2023-03-07T07:55:10;98858.03;;;21.89
41654;BMP280;30790;52.030;7.110;2023-03-07T07:57:38;98851.75;;;21.88
41654;BMP280;30790;52.030;7.110;2023-03-07T08:00:04;98849.53;;;21.90
41654;BMP280;30790;52.030;7.110;2023-03-07T08:02:29;98847.09;;;21.89
41654;BMP280;30790;52.030;7.110;2023-03-07T08:04:55;98840.41;;;21.81
41654;BMP280;30790;52.030;7.110;2023-03-07T08:07:21;98849.63;;;21.85
41654;BMP280;30790;52.030;7.110;2023-03-07T08:09:46;98841.44;;;21.85
41654;BMP280;30790;52.030;7.110;2023-03-07T08:12:12;98843.94;;;21.82
41654;BMP280;30790;52.030;7.110;2023-03-07T08:14:38;98854.47;;;21.75
41654;BMP280;30790;52.030;7.110;2023-03-07T08:17:04;98847.69;;;21.72
41654;BMP280;30790;52.030;7.110;2023-03-07T08:19:29;98842.81;;;21.69
41654;BMP280;30790;52.030;7.110;2023-03-07T08:21:55;98838.78;;;21.67
41654;BMP280;30790;52.030;7.110;2023-03-07T08:24:20;98832.00;;;21.64
41654;BMP280;30790;52.030;7.110;2023-03-07T08:26:45;98834.50;;;21.60
41654;BMP280;30790;52.030;7.110;2023-03-07T08:29:11;98839.44;;;21.58
41654;BMP280;30790;52.030;7.110;2023-03-07T08:31:37;98840.56;;;21.57
41654;BMP280;30790;52.030;7.110;2023-03-07T08:34:02;98831.63;;;21.52
41654;BMP280;30790;52.030;7.110;2023-03-07T08:36:27;98840.13;;;21.50
41654;BMP280;30790;52.030;7.110;2023-03-07T08:38:52;98838.81;;;21.48
41654;BMP280;30790;52.030;7.110;2023-03-07T08:41:20;98845.91;;;21.49
41654;BMP280;30790;52.030;7.110;2023-03-07T08:43:45;98851.44;;;21.44
41654;BMP280;30790;52.030;7.110;2023-03-07T08:46:10;98849.81;;;21.43
41654;BMP280;30790;52.030;7.110;2023-03-07T08:48:37;98849.91;;;21.38
41654;BMP280;30790;52.030;7.110;2023-03-07T08:51:07;98856.47;;;21.37
41654;BMP280;30790;52.030;7.110;2023-03-07T08:53:33;98858.59;;;21.40
41654;BMP280;30790;52.030;7.110;2023-03-07T08:55:58;98851.28;;;21.35
41654;BMP280;30790;52.030;7.110;2023-03-07T08:58:23;98857.72;;;21.25
41654;BMP280;30790;52.030;7.110;2023-03-07T09:00:49;98858.84;;;21.24
41654;BMP280;30790;52.030;7.110;2023-03-07T09:03:14;98854.19;;;21.25
41654;BMP280;30790;52.030;7.110;2023-03-07T09:05:39;98859.03;;;21.28
41654;BMP280;30790;52.030;7.110;2023-03-07T09:08:06;98859.56;;;21.30
41654;BMP280;30790;52.030;7.110;2023-03-07T09:10:32;98860.97;;;21.27
41654;BMP280;30790;52.030;7.110;2023-03-07T09:12:58;98872.41;;;21.29
41654;BMP280;30790;52.030;7.110;2023-03-07T09:15:23;98867.00;;;21.24
41654;BMP280;30790;52.030;7.110;2023-03-07T09:17:48;98874.31;;;21.29
41654;BMP280;30790;52.030;7.110;2023-03-07T09:20:14;98874.97;;;21.21
41654;BMP280;30790;52.030;7.110;2023-03-07T09:22:42;98875.59;;;21.37
41654;BMP280;30790;52.030;7.110;2023-03-07T09:25:08;98869.56;;;21.35
41654;BMP280;30790;52.030;7.110;2023-03-07T09:27:33;98878.75;;;21.44
41654;BMP280;30790;52.030;7.110;2023-03-07T09:29:58;98877.97;;;21.57
41654;BMP280;30790;52.030;7.110;2023-03-07T09:32:24;98879.28;;;21.59
41654;BMP280;30790;52.030;7.110;2023-03-07T09:34:51;98867.25;;;21.60
41654;BMP280;30790;52.030;7.110;2023-03-07T09:37:16;98872.97;;;21.64
41654;BMP280;30790;52.030;7.110;2023-03-07T09:39:42;98868.06;;;21.61
41654;BMP280;30790;52.030;7.110;2023-03-07T09:42:20;98878.69;;;21.63
41654;BMP280;30790;52.030;7.110;2023-03-07T09:50:22;98863.09;;;21.31
41654;BMP280;30790;52.030;7.110;2023-03-07T09:53:00;98870.94;;;21.37
41654;BMP280;30790;52.030;7.110;2023-03-07T09:55:28;98860.53;;;21.39
41654;BMP280;30790;52.030;7.110;2023-03-07T09:58:00;98860.53;;;21.39
41654;BMP280;30790;52.030;7.110;2023-03-07T10:00:43;98874.53;;;21.33
41654;BMP280;30790;52.030;7.110;2023-03-07T10:03:31;98862.13;;;20.84
41654;BMP280;30790;52.030;7.110;2023-03-07T10:06:09;98857.84;;;20.96
41654;BMP280;30790;52.030;7.110;2023-03-07T10:08:37;98860.66;;;21.10
41654;BMP280;30790;52.030;7.110;2023-03-07T10:11:19;98855.94;;;21.16
41654;BMP280;30790;52.030;7.110;2023-03-07T10:16:42;98853.34;;;21.06
41654;BMP280;30790;52.030;7.110;2023-03-07T10:19:19;98865.94;;;19.53
41654;BMP280;30790;52.030;7.110;2023-03-07T10:22:02;98859.38;;;19.88
41654;BMP280;30790;52.030;7.110;2023-03-07T10:24:42;98860.22;;;20.36
41654;BMP280;30790;52.030;7.110;2023-03-07T10:27:12;98865.97;;;20.83
41654;BMP280;30790;52.030;7.110;2023-03-07T10:32:17;98859.34;;;21.45
41654;BMP280;30790;52.030;7.110;2023-03-07T10:34:44;98860.13;;;21.46
41654;BMP280;30790;52.030;7.110;2023-03-07T10:37:28;98866.50;;;21.41
41654;BMP280;30790;52.030;7.110;2023-03-07T10:39:59;98866.94;;;21.29
41654;BMP280;30790;52.030;7.110;2023-03-07T10:42:30;98867.88;;;21.20
41654;BMP280;30790;52.030;7.110;2023-03-07T10:44:57;98865.22;;;21.34
41654;BMP280;30790;52.030;7.110;2023-03-07T10:47:25;98859.75;;;21.52
41654;BMP280;30790;52.030;7.110;2023-03-07T10:50:07;98858.47;;;21.64
41654;BMP280;30790;52.030;7.110;2023-03-07T10:53:01;98864.06;;;21.72
41654;BMP280;30790;52.030;7.110;2023-03-07T10:55:35;98868.41;;;21.73
41654;BMP280;30790;52.030;7.110;2023-03-07T11:00:39;98855.31;;;21.56
41654;BMP280;30790;52.030;7.110;2023-03-07T11:03:20;98859.06;;;21.60
41654;BMP280;30790;52.030;7.110;2023-03-07T11:05:47;98864.22;;;21.62
41654;BMP280;30790;52.030;7.110;2023-03-07T11:08:25;98862.09;;;21.59
41654;BMP280;30790;52.030;7.110;2023-03-07T11:10:51;98859.34;;;21.45
41654;BMP280;30790;52.030;7.110;2023-03-07T11:13:18;98865.59;;;21.46
41654;BMP280;30790;52.030;7.110;2023-03-07T11:15:44;98866.63;;;21.50
41654;BMP280;30790;52.030;7.110;2023-03-07T11:18:31;98861.69;;;21.33
41654;BMP280;30790;52.030;7.110;2023-03-07T11:21:01;98861.31;;;21.02
41654;BMP280;30790;52.030;7.110;2023-03-07T11:23:28;98856.16;;;20.82
41654;BMP280;30790;52.030;7.110;2023-03-07T11:26:14;98860.88;;;20.95
41654;BMP280;30790;52.030;7.110;2023-03-07T11:28:40;98867.28;;;21.23
41654;BMP280;30790;52.030;7.110;2023-03-07T11:36:35;98876.00;;;21.44
41654;BMP280;30790;52.030;7.110;2023-03-07T11:41:46;98872.69;;;21.47
41654;BMP280;30790;52.030;7.110;2023-03-07T11:44:22;98877.31;;;21.46
41654;BMP280;30790;52.030;7.110;2023-03-07T11:52:15;98875.72;;;21.45
41654;BMP280;30790;52.030;7.110;2023-03-07T12:00:22;98882.13;;;21.36
41654;BMP280;30790;52.030;7.110;2023-03-07T12:05:30;98878.44;;;21.26
41654;BMP280;30790;52.030;7.110;2023-03-07T12:10:44;98883.41;;;21.01
41654;BMP280;30790;52.030;7.110;2023-03-07T12:13:16;98883.94;;;20.84
41654;BMP280;30790;52.030;7.110;2023-03-07T12:15:52;98886.84;;;20.68
41654;BMP280;30790;52.030;7.110;2023-03-07T12:18:28;98887.97;;;20.67
41654;BMP280;30790;52.030;7.110;2023-03-07T12:23:41;98879.19;;;20.71
41654;BMP280;30790;52.030;7.110;2023-03-07T12:26:42;98872.81;;;20.99
41654;BMP280;30790;52.030;7.110;2023-03-07T12:29:32;98868.19;;;21.18
41654;BMP280;30790;52.030;7.110;2023-03-07T12:32:03;98867.41;;;21.37
41654;BMP280;30790;52.030;7.110;2023-03-07T12:34:45;98863.97;;;21.45
41654;BMP280;30790;52.030;7.110;2023-03-07T12:37:18;98857.13;;;21.47
41654;BMP280;30790;52.030;7.110;2023-03-07T12:42:40;98850.44;;;21.53
41654;BMP280;30790;52.030;7.110;2023-03-07T12:45:17;98852.88;;;21.55
41654;BMP280;30790;52.030;7.110;2023-03-07T12:53:10;98861.59;;;21.57
41654;BMP280;30790;52.030;7.110;2023-03-07T12:55:45;98867.84;;;21.57
41654;BMP280;30790;52.030;7.110;2023-03-07T12:58:39;98860.25;;;21.54
41654;BMP280;30790;52.030;7.110;2023-03-07T13:01:08;98869.25;;;21.55
41654;BMP280;30790;52.030;7.110;2023-03-07T13:06:15;98867.66;;;21.54
41654;BMP280;30790;52.030;7.110;2023-03-07T13:08:43;98867.44;;;21.50
41654;BMP280;30790;52.030;7.110;2023-03-07T13:11:21;98873.69;;;21.51
41654;BMP280;30790;52.030;7.110;2023-03-07T13:16:44;98863.97;;;21.45
41654;BMP280;30790;52.030;7.110;2023-03-07T13:21:56;98854.78;;;21.41
41654;BMP280;30790;52.030;7.110;2023-03-07T13:27:00;98859.78;;;21.34
41654;BMP280;30790;52.030;7.110;2023-03-07T13:37:59;98862.59;;;21.28
41654;BMP280;30790;52.030;7.110;2023-03-07T13:42:58;98862.13;;;21.21
41654;BMP280;30790;52.030;7.110;2023-03-07T13:48:01;98862.72;;;21.18
41654;BMP280;30790;52.030;7.110;2023-03-07T13:58:41;98871.56;;;21.10
41654;BMP280;30790;52.030;7.110;2023-03-07T14:01:30;98883.00;;;21.12
41654;BMP280;30790;52.030;7.110;2023-03-07T14:06:31;98876.34;;;21.18
41654;BMP280;30790;52.030;7.110;2023-03-07T14:08:58;98886.94;;;21.25
41654;BMP280;30790;52.030;7.110;2023-03-07T14:11:34;98884.34;;;21.34
41654;BMP280;30790;52.030;7.110;2023-03-07T14:17:41;98882.56;;;21.43
41654;BMP280;30790;52.030;7.110;2023-03-07T14:23:08;98900.56;;;21.44
41654;BMP280;30790;52.030;7.110;2023-03-07T14:25:40;98909.34;;;21.41
41654;BMP280;30790;52.030;7.110;2023-03-07T14:28:24;98908.53;;;21.40
41654;BMP280;30790;52.030;7.110;2023-03-07T14:30:57;98914.31;;;21.39
41654;BMP280;30790;52.030;7.110;2023-03-07T14:33:38;98912.69;;;21.38
41654;BMP280;30790;52.030;7.110;2023-03-07T14:36:18;98923.59;;;21.38
41654;BMP280;30790;52.030;7.110;2023-03-07T14:38:44;98923.59;;;21.38
41654;BMP280;30790;52.030;7.110;2023-03-07T14:41:43;98921.72;;;21.33
41654;BMP280;30790;52.030;7.110;2023-03-07T14:44:22;98929.41;;;21.31
41654;BMP280;30790;52.030;7.110;2023-03-07T14:47:29;98925.88;;;21.31
41654;BMP280;30790;52.030;7.110;2023-03-07T14:50:20;98927.56;;;21.26
41654;BMP280;30790;52.030;7.110;2023-03-07T14:52:47;98927.56;;;21.26
41654;BMP280;30790;52.030;7.110;2023-03-07T14:55:17;98925.13;;;21.25
41654;BMP280;30790;52.030;7.110;2023-03-07T14:57:46;98923.78;;;21.22
41654;BMP280;30790;52.030;7.110;2023-03-07T15:02:52;98922.69;;;21.23
41654;BMP280;30790;52.030;7.110;2023-03-07T15:05:27;98916.13;;;21.24
41654;BMP280;30790;52.030;7.110;2023-03-07T15:07:52;98913.44;;;21.19
41654;BMP280;30790;52.030;7.110;2023-03-07T15:10:42;98915.06;;;21.20
41654;BMP280;30790;52.030;7.110;2023-03-07T15:13:21;98918.69;;;21.16
41654;BMP280;30790;52.030;7.110;2023-03-07T15:15:54;98921.13;;;21.17
41654;BMP280;30790;52.030;7.110;2023-03-07T15:18:26;98924.22;;;21.11
41654;BMP280;30790;52.030;7.110;2023-03-07T15:20:54;98928.31;;;21.08
41654;BMP280;30790;52.030;7.110;2023-03-07T15:23:23;98926.69;;;21.07
41654;BMP280;30790;52.030;7.110;2023-03-07T15:25:51;98934.06;;;21.07
41654;BMP280;30790;52.030;7.110;2023-03-07T15:28:19;98932.75;;;21.04
41654;BMP280;30790;52.030;7.110;2023-03-07T15:30:47;98926.78;;;21.02
41654;BMP280;30790;52.030;7.110;2023-03-07T15:33:23;98919.69;;;21.01
41654;BMP280;30790;52.030;7.110;2023-03-07T15:36:12;98925.97;;;21.02
41654;BMP280;30790;52.030;7.110;2023-03-07T15:38:45;98925.75;;;20.98
41654;BMP280;30790;52.030;7.110;2023-03-07T15:41:31;98924.34;;;21.01
41654;BMP280;30790;52.030;7.110;2023-03-07T15:46:30;98924.13;;;20.97
41654;BMP280;30790;52.030;7.110;2023-03-07T15:48:56;98929.06;;;20.95
41654;BMP280;30790;52.030;7.110;2023-03-07T15:51:23;98932.31;;;20.97
41654;BMP280;30790;52.030;7.110;2023-03-07T15:53:56;98937.25;;;20.95
41654;BMP280;30790;52.030;7.110;2023-03-07T15:56:27;98930.97;;;20.94